createdAt,value
2019-03-20T00:01:13.273Z,5.33
2019-03-20T00:03:44.019Z,4.77
2019-03-20T00:06:23.160Z,4.92
2019-03-20T00:08:55.235Z,4.80
2019-03-20T00:11:25.758Z,4.97
2019-03-20T00:13:57.010Z,5.10
2019-03-20T00:16:28.055Z,4.50
2019-03-20T00:18:58.535Z,4.80
2019-03-20T00:21:29.843Z,4.47
2019-03-20T00:24:01.219Z,4.62
2019-03-20T00:26:34.894Z,4.30
2019-03-20T00:29:06.765Z,5.10
2019-03-20T00:31:37.319Z,4.17
2019-03-20T00:34:07.765Z,4.17
2019-03-20T00:36:39.459Z,4.87
2019-03-20T00:39:11.937Z,4.92
2019-03-20T00:41:42.422Z,4.70
2019-03-20T00:44:13.316Z,4.92
2019-03-20T00:46:44.269Z,4.53
2019-03-20T00:49:14.723Z,4.80
2019-03-20T00:51:45.556Z,5.12
2019-03-20T00:54:16.344Z,4.97
2019-03-20T00:56:46.698Z,5.05
2019-03-20T00:59:17.098Z,4.62
2019-03-20T01:01:47.863Z,5.15
2019-03-20T01:04:18.239Z,5.12
2019-03-20T01:09:24.058Z,5.03
2019-03-20T01:11:55.226Z,4.25
2019-03-20T01:14:27.975Z,4.80
2019-03-20T01:16:58.814Z,4.70
2019-03-20T01:19:29.316Z,3.90
2019-03-20T01:22:02.652Z,4.00
2019-03-20T01:24:33.928Z,3.85
2019-03-20T01:27:07.685Z,4.47
2019-03-20T01:29:38.227Z,4.35
2019-03-20T01:32:08.977Z,4.08
2019-03-20T01:34:46.452Z,4.80
2019-03-20T01:37:16.804Z,4.25
2019-03-20T01:39:47.227Z,4.30
2019-03-20T01:42:19.182Z,4.58
2019-03-20T01:44:59.369Z,5.03
2019-03-20T01:47:32.250Z,4.80
2019-03-20T01:50:02.677Z,4.83
2019-03-20T01:52:35.432Z,4.95
2019-03-20T01:55:07.212Z,4.70
2019-03-20T01:57:39.865Z,4.53
2019-03-20T02:06:56.374Z,4.87
2019-03-20T02:10:44.450Z,4.55
2019-03-20T02:36:40.621Z,4.17
2019-03-20T02:50:28.573Z,4.45
2019-03-20T02:58:59.656Z,4.50
2019-03-20T03:03:08.245Z,4.67
2019-03-20T03:05:38.540Z,4.10
2019-03-20T03:08:08.983Z,4.17
2019-03-20T03:10:40.679Z,4.22
2019-03-20T03:13:10.914Z,4.33
2019-03-20T03:15:57.272Z,4.03
2019-03-20T03:23:04.056Z,4.17
2019-03-20T03:26:37.168Z,4.10
2019-03-20T03:33:18.735Z,4.28
2019-03-20T03:36:58.605Z,4.40
2019-03-20T03:40:13.870Z,4.40
2019-03-20T03:47:40.472Z,4.87
2019-03-20T03:50:44.007Z,4.33
2019-03-20T03:54:31.693Z,4.55
2019-03-20T03:59:27.721Z,4.35
2019-03-20T04:01:34.652Z,4.40
2019-03-20T04:05:59.667Z,3.83
2019-03-20T04:17:01.530Z,3.50
2019-03-20T04:20:17.574Z,4.10
2019-03-20T04:23:51.031Z,3.77
2019-03-20T04:27:03.882Z,4.10
2019-03-20T04:31:12.767Z,4.40
2019-03-20T04:34:38.823Z,4.03
2019-03-20T04:38:00.101Z,3.83
2019-03-20T04:48:33.143Z,4.17
2019-03-20T04:51:25.620Z,4.12
2019-03-20T04:54:26.893Z,4.45
2019-03-20T04:57:49.536Z,4.40
2019-03-20T05:01:41.533Z,4.20
2019-03-20T05:05:09.446Z,4.03
2019-03-20T05:08:42.553Z,4.37
2019-03-20T05:15:37.035Z,4.15
2019-03-20T05:22:49.120Z,4.30
2019-03-20T05:26:39.436Z,5.30
2019-03-20T05:29:10.730Z,4.78
2019-03-20T05:31:49.794Z,5.12
2019-03-20T05:34:48.777Z,5.55
2019-03-20T05:42:11.236Z,4.80
2019-03-20T05:47:57.320Z,4.25
2019-03-20T05:52:15.020Z,4.45
2019-03-20T05:54:28.668Z,4.70
2019-03-20T05:58:00.194Z,4.28
2019-03-20T06:01:02.413Z,4.20
2019-03-20T06:21:51.121Z,4.53
2019-03-20T06:36:53.704Z,5.08
2019-03-20T06:40:33.579Z,4.28
2019-03-20T06:44:35.828Z,4.78
2019-03-20T06:59:15.122Z,4.95
2019-03-20T07:25:46.623Z,5.28
2019-03-20T08:06:20.243Z,5.42
2019-03-20T08:08:52.837Z,5.35
2019-03-20T08:11:29.642Z,5.55
2019-03-20T08:14:00.827Z,4.87
2019-03-20T08:16:31.763Z,5.28
2019-03-20T08:19:10.283Z,4.22
2019-03-20T08:21:51.510Z,5.17
2019-03-20T08:24:26.255Z,4.90
2019-03-20T08:26:59.571Z,4.17
2019-03-20T08:32:04.615Z,4.08
2019-03-20T08:34:35.311Z,4.30
2019-03-20T08:37:07.331Z,3.62
2019-03-20T08:39:39.156Z,4.15
2019-03-20T08:42:12.765Z,3.62
2019-03-20T08:44:45.942Z,3.58
2019-03-20T08:47:19.060Z,3.62
2019-03-20T08:49:55.949Z,3.62
2019-03-20T08:52:26.542Z,3.08
2019-03-20T08:54:57.475Z,3.02
2019-03-20T08:57:27.905Z,3.10
2019-03-20T09:00:04.999Z,3.08
2019-03-20T09:02:38.559Z,2.70
2019-03-20T09:07:47.495Z,3.08
2019-03-20T09:10:19.401Z,2.95
2019-03-20T09:12:52.119Z,2.83
2019-03-20T09:15:23.933Z,3.02
2019-03-20T09:17:54.924Z,2.52
2019-03-20T09:20:27.449Z,2.95
2019-03-20T09:22:58.706Z,2.58
2019-03-20T09:25:29.358Z,2.47
2019-03-20T09:28:01.143Z,2.70
2019-03-20T09:30:32.076Z,2.33
2019-03-20T09:33:03.362Z,2.50
2019-03-20T09:35:36.417Z,2.05
2019-03-20T09:38:06.961Z,2.05
2019-03-20T09:40:39.716Z,2.15
2019-03-20T09:43:13.936Z,1.85
2019-03-20T09:45:44.829Z,1.60
2019-03-20T09:48:15.452Z,1.70
2019-03-20T09:50:47.334Z,1.85
2019-03-20T09:53:18.021Z,1.72
2019-03-20T09:55:51.775Z,1.70
2019-03-20T09:58:30.725Z,1.75
2019-03-20T10:01:01.913Z,2.00
2019-03-20T10:03:32.593Z,1.70
2019-03-20T10:06:03.591Z,1.80
2019-03-20T10:08:36.160Z,1.85
2019-03-20T10:11:12.585Z,1.90
2019-03-20T10:13:46.445Z,2.00
2019-03-20T10:16:18.651Z,1.75
2019-03-20T10:18:55.440Z,1.90
2019-03-20T10:21:26.407Z,3.40
2019-03-20T10:23:57.472Z,2.20
2019-03-20T10:26:31.479Z,2.33
2019-03-20T10:29:09.319Z,2.40
2019-03-20T10:31:51.746Z,1.95
2019-03-20T10:34:25.818Z,2.10
2019-03-20T10:36:59.427Z,1.75
2019-03-20T10:39:30.598Z,1.57
2019-03-20T10:42:02.368Z,2.00
2019-03-20T10:44:34.975Z,1.70
2019-03-20T10:47:12.642Z,2.40
2019-03-20T10:49:46.199Z,2.05
2019-03-20T10:52:18.609Z,2.55
2019-03-20T10:54:50.590Z,2.08
2019-03-20T10:57:23.169Z,1.80
2019-03-20T10:59:54.085Z,2.08
2019-03-20T11:02:26.482Z,3.00
2019-03-20T11:04:57.148Z,2.35
2019-03-20T11:07:29.808Z,2.27
2019-03-20T11:10:05.499Z,2.77
2019-03-20T11:13:05.888Z,2.22
2019-03-20T11:15:40.112Z,2.42
2019-03-20T11:18:11.026Z,2.10
2019-03-20T11:20:44.968Z,2.10
2019-03-20T11:23:25.294Z,2.20
2019-03-20T11:26:05.554Z,2.00
2019-03-20T11:28:38.437Z,2.15
2019-03-20T11:31:15.723Z,2.10
2019-03-20T11:33:58.237Z,2.20
2019-03-20T11:36:47.696Z,2.15
2019-03-20T11:39:28.945Z,1.80
2019-03-20T11:41:58.210Z,2.00
2019-03-20T11:44:30.984Z,2.12
2019-03-20T11:47:02.105Z,2.35
2019-03-20T11:49:33.225Z,2.30
2019-03-20T11:52:06.312Z,1.77
2019-03-20T11:54:39.220Z,2.27
2019-03-20T11:57:10.069Z,2.10
2019-03-20T11:59:41.732Z,2.40
2019-03-20T12:02:12.751Z,2.45
2019-03-20T12:04:43.405Z,2.05
2019-03-20T12:07:18.436Z,2.37
2019-03-20T12:09:51.270Z,2.17
2019-03-20T12:12:22.652Z,2.50
2019-03-20T12:15:04.515Z,2.40
2019-03-20T12:17:37.407Z,2.00
2019-03-20T12:20:15.746Z,2.27
2019-03-20T12:22:46.394Z,2.10
2019-03-20T12:25:22.327Z,2.02
2019-03-20T12:27:56.538Z,2.30
2019-03-20T12:30:31.121Z,1.95
2019-03-20T12:33:15.925Z,2.22
2019-03-20T12:35:46.789Z,2.55
2019-03-20T12:38:21.819Z,2.13
2019-03-20T12:43:24.859Z,1.92
2019-03-20T12:45:58.312Z,2.30
2019-03-20T12:48:32.364Z,2.00
2019-03-20T12:51:17.031Z,2.22
2019-03-20T12:53:48.213Z,2.10
2019-03-20T12:56:23.307Z,2.00
2019-03-20T12:58:57.936Z,3.42
2019-03-20T13:01:31.026Z,4.12
2019-03-20T13:04:02.023Z,3.17
2019-03-20T13:06:34.835Z,3.17
2019-03-20T13:09:08.252Z,2.65
2019-03-20T13:14:11.652Z,2.67
2019-03-20T13:16:43.034Z,3.75
2019-03-20T13:19:16.985Z,3.30
2019-03-20T13:21:55.384Z,2.50
2019-03-20T13:24:25.957Z,2.50
2019-03-20T13:26:57.349Z,2.70
2019-03-20T13:29:30.611Z,2.55
2019-03-20T13:32:04.545Z,3.33
2019-03-20T13:34:37.754Z,2.72
2019-03-20T13:37:08.880Z,2.47
2019-03-20T13:39:45.396Z,2.40
2019-03-20T13:42:16.189Z,2.90
2019-03-20T13:44:48.149Z,2.37
2019-03-20T13:47:20.559Z,2.37
2019-03-20T13:49:54.986Z,2.30
2019-03-20T13:52:28.975Z,2.50
2019-03-20T13:55:03.949Z,2.42
2019-03-20T13:57:42.042Z,2.00
2019-03-20T14:00:31.682Z,2.50
2019-03-20T14:03:17.440Z,3.02
2019-03-20T14:05:49.244Z,2.73
2019-03-20T14:08:20.779Z,2.62
2019-03-20T14:11:12.432Z,2.58
2019-03-20T14:13:49.898Z,1.98
2019-03-20T14:16:33.019Z,2.52
2019-03-20T14:19:35.753Z,2.22
2019-03-20T14:22:11.568Z,2.10
2019-03-20T14:24:55.803Z,2.30
2019-03-20T14:27:31.541Z,2.75
2019-03-20T14:30:10.260Z,2.52
2019-03-20T14:32:43.296Z,2.47
2019-03-20T14:35:15.653Z,2.60
2019-03-20T14:38:03.058Z,2.10
2019-03-20T14:40:47.442Z,3.42
2019-03-20T14:43:23.368Z,2.85
2019-03-20T14:46:01.055Z,2.77
2019-03-20T14:48:35.517Z,2.30
2019-03-20T14:51:10.300Z,1.95
2019-03-20T14:53:50.046Z,2.50
2019-03-20T14:56:57.697Z,2.58
2019-03-20T14:59:38.785Z,2.62
2019-03-20T15:02:20.919Z,2.33
2019-03-20T15:05:04.307Z,3.00
2019-03-20T15:11:08.250Z,2.35
2019-03-20T15:27:54.973Z,3.10
2019-03-20T15:30:29.582Z,2.52
2019-03-20T15:34:22.881Z,2.35
2019-03-20T15:37:25.422Z,2.50
2019-03-20T15:40:26.251Z,2.80
2019-03-20T15:43:02.564Z,2.65
2019-03-20T15:49:12.945Z,2.50
2019-03-20T15:51:58.220Z,2.50
2019-03-20T15:55:24.378Z,2.52
2019-03-20T15:57:59.878Z,3.33
2019-03-20T16:01:06.627Z,2.92
2019-03-20T16:03:45.463Z,2.20
2019-03-20T16:06:27.802Z,2.90
2019-03-20T16:09:18.670Z,2.52
2019-03-20T16:11:56.129Z,2.27
2019-03-20T16:14:41.207Z,2.42
2019-03-20T16:17:14.097Z,2.42
2019-03-20T16:19:55.590Z,2.70
2019-03-20T16:22:49.932Z,3.15
2019-03-20T16:25:26.595Z,2.62
2019-03-20T16:28:13.080Z,2.87
2019-03-20T16:31:49.348Z,2.60
2019-03-20T16:39:41.949Z,2.85
2019-03-20T16:42:45.485Z,2.60
2019-03-20T16:45:35.460Z,2.90
2019-03-20T16:52:57.068Z,3.20
2019-03-20T16:59:18.409Z,2.70
2019-03-20T17:02:29.012Z,2.75
2019-03-20T17:05:40.275Z,2.67
2019-03-20T17:13:10.464Z,2.90
2019-03-20T17:16:36.186Z,2.95
2019-03-20T17:19:33.026Z,2.98
2019-03-20T17:26:14.681Z,3.30
2019-03-20T17:29:46.242Z,3.15
2019-03-20T17:32:08.907Z,3.12
2019-03-20T17:34:44.291Z,3.08
2019-03-20T17:37:35.512Z,3.17
2019-03-20T17:40:19.327Z,3.22
2019-03-20T17:46:10.274Z,3.10
2019-03-20T17:49:00.551Z,3.40
2019-03-20T17:52:33.213Z,3.30
2019-03-20T17:55:46.270Z,2.92
2019-03-20T18:06:28.639Z,2.92
2019-03-20T18:09:38.654Z,2.95
2019-03-20T18:12:19.936Z,2.95
2019-03-20T18:15:25.491Z,3.15
2019-03-20T18:34:30.042Z,3.27
2019-03-20T18:37:00.699Z,2.90
2019-03-20T18:39:32.067Z,2.65
2019-03-20T18:42:02.321Z,2.67
2019-03-20T18:44:34.577Z,2.77
2019-03-20T18:47:07.143Z,2.72
2019-03-20T18:49:37.805Z,3.20
2019-03-20T18:52:12.945Z,2.85
2019-03-20T18:54:44.374Z,2.87
2019-03-20T18:57:16.486Z,2.62
2019-03-20T18:59:53.822Z,3.40
2019-03-20T19:02:24.143Z,2.52
2019-03-20T19:04:54.855Z,3.08
2019-03-20T19:07:25.082Z,2.80
2019-03-20T19:09:57.255Z,3.17
2019-03-20T19:12:28.211Z,2.95
2019-03-20T19:14:59.915Z,3.83
2019-03-20T19:17:31.210Z,3.77
2019-03-20T19:20:01.560Z,4.37
2019-03-20T19:22:32.846Z,3.85
2019-03-20T19:25:03.252Z,4.20
2019-03-20T19:27:34.266Z,3.90
2019-03-20T19:30:05.319Z,3.60
2019-03-20T19:32:36.138Z,4.30
2019-03-20T19:35:08.132Z,4.00
2019-03-20T19:37:39.478Z,4.30
2019-03-20T19:40:11.031Z,3.87
2019-03-20T19:42:41.498Z,4.70
2019-03-20T19:45:23.995Z,4.72
2019-03-20T19:47:54.321Z,4.75
2019-03-20T19:50:24.699Z,4.92
2019-03-20T19:52:56.061Z,5.28
2019-03-20T19:55:26.320Z,5.10
2019-03-20T19:57:56.899Z,5.10
2019-03-20T20:00:29.416Z,5.00
2019-03-20T20:03:00.763Z,5.53
2019-03-20T20:05:31.768Z,5.55
